createdAt,value
2022-12-29T00:01:53.651Z,9.82
2022-12-29T00:04:21.512Z,10.57
2022-12-29T00:06:49.581Z,8.93
2022-12-29T00:09:17.816Z,8.82
2022-12-29T00:11:45.696Z,8.45
2022-12-29T00:14:32.452Z,7.80
2022-12-29T00:17:00.336Z,8.18
2022-12-29T00:19:46.347Z,8.07
2022-12-29T00:22:33.676Z,7.07
2022-12-29T00:25:20.874Z,7.85
2022-12-29T00:28:07.931Z,6.75
2022-12-29T00:30:55.408Z,8.55
2022-12-29T00:33:46.015Z,7.23
2022-12-29T00:36:18.045Z,8.00
2022-12-29T00:39:36.260Z,8.13
2022-12-29T00:42:24.112Z,7.20
2022-12-29T00:44:51.934Z,8.48
2022-12-29T00:47:19.413Z,8.17
2022-12-29T00:49:46.936Z,7.60
2022-12-29T00:52:15.264Z,8.95
2022-12-29T00:54:45.947Z,8.43
2022-12-29T00:57:13.683Z,9.18
2022-12-29T00:59:43.027Z,8.90
2022-12-29T01:02:11.820Z,8.70
2022-12-29T01:04:39.500Z,8.13
2022-12-29T01:07:07.497Z,8.88
2022-12-29T01:09:53.830Z,9.55
2022-12-29T01:12:41.540Z,8.70
2022-12-29T01:15:11.667Z,9.25
2022-12-29T01:17:39.651Z,8.85
2022-12-29T01:20:07.697Z,8.85
2022-12-29T01:22:36.443Z,8.52
2022-12-29T01:25:05.755Z,8.37
2022-12-29T01:27:33.311Z,8.07
2022-12-29T01:30:00.738Z,8.23
2022-12-29T01:32:28.502Z,8.85
2022-12-29T01:34:55.985Z,8.60
2022-12-29T01:37:23.496Z,8.63
2022-12-29T01:39:51.230Z,8.43
2022-12-29T01:42:23.535Z,8.90
2022-12-29T01:44:54.303Z,8.77
2022-12-29T01:47:36.875Z,8.80
2022-12-29T01:50:08.235Z,9.37
2022-12-29T01:52:39.802Z,8.52
2022-12-29T01:55:09.959Z,10.05
2022-12-29T01:57:41.804Z,8.80
2022-12-29T02:00:12.427Z,10.57
2022-12-29T02:02:42.785Z,9.67
2022-12-29T02:05:35.305Z,8.77
2022-12-29T02:08:03.315Z,9.25
2022-12-29T02:10:34.117Z,8.95
2022-12-29T02:13:01.780Z,9.20
2022-12-29T02:16:04.332Z,9.10
2022-12-29T02:19:05.244Z,8.70
2022-12-29T02:21:35.962Z,9.88
2022-12-29T02:24:16.250Z,8.63
2022-12-29T02:26:59.009Z,9.73
2022-12-29T02:30:01.773Z,10.10
2022-12-29T02:32:48.386Z,9.10
2022-12-29T02:35:27.872Z,9.07
2022-12-29T02:38:11.126Z,9.48
2022-12-29T02:41:03.629Z,9.80
2022-12-29T02:43:48.917Z,8.57
2022-12-29T02:46:34.755Z,8.50
2022-12-29T02:49:15.181Z,10.30
2022-12-29T02:52:00.951Z,8.95
2022-12-29T02:54:44.145Z,8.85
2022-12-29T02:57:15.922Z,9.83
2022-12-29T02:59:47.897Z,8.98
2022-12-29T03:02:25.603Z,9.57
2022-12-29T03:05:12.280Z,10.40
2022-12-29T03:07:51.589Z,10.50
2022-12-29T03:10:42.600Z,9.80
2022-12-29T03:13:38.943Z,10.25
2022-12-29T03:16:24.687Z,8.98
2022-12-29T03:19:16.500Z,10.60
2022-12-29T03:22:11.931Z,8.85
2022-12-29T03:24:45.700Z,9.20
2022-12-29T03:27:19.880Z,10.27
2022-12-29T03:29:55.016Z,9.68
2022-12-29T03:32:26.852Z,9.35
2022-12-29T03:34:55.921Z,9.25
2022-12-29T03:37:29.684Z,9.13
2022-12-29T03:39:58.409Z,10.63
2022-12-29T03:42:31.317Z,10.77
2022-12-29T03:44:59.078Z,10.32
2022-12-29T03:47:27.312Z,11.30
2022-12-29T03:49:54.956Z,10.30
2022-12-29T03:52:22.979Z,10.25
2022-12-29T03:54:52.037Z,11.68
2022-12-29T03:57:19.743Z,12.18
2022-12-29T03:59:47.691Z,10.70
2022-12-29T04:02:15.658Z,12.00
2022-12-29T04:04:43.690Z,11.23
2022-12-29T04:07:11.321Z,11.57
2022-12-29T04:09:38.929Z,12.20
2022-12-29T04:12:07.587Z,11.52
2022-12-29T04:14:35.814Z,11.43
2022-12-29T04:17:03.321Z,11.43
2022-12-29T04:19:31.560Z,10.88
2022-12-29T04:21:59.236Z,11.60
2022-12-29T04:24:26.801Z,10.48
2022-12-29T04:26:55.672Z,12.13
2022-12-29T04:29:23.794Z,11.93
2022-12-29T04:31:51.816Z,12.02
2022-12-29T04:34:20.032Z,12.02
2022-12-29T04:36:48.001Z,11.15
2022-12-29T04:39:15.502Z,13.40
2022-12-29T04:41:43.786Z,12.63
2022-12-29T04:44:11.987Z,12.40
2022-12-29T04:46:39.873Z,12.35
2022-12-29T04:49:09.825Z,11.32
2022-12-29T04:51:38.988Z,11.83
2022-12-29T04:54:08.016Z,11.65
2022-12-29T04:56:36.109Z,12.30
2022-12-29T04:59:03.758Z,11.93
2022-12-29T05:01:31.457Z,11.65
2022-12-29T05:03:59.460Z,12.47
2022-12-29T05:06:27.055Z,12.85
2022-12-29T05:08:54.573Z,11.88
2022-12-29T05:11:22.464Z,11.55
2022-12-29T05:13:50.292Z,11.20
2022-12-29T05:16:18.010Z,10.77
2022-12-29T05:18:46.543Z,12.90
2022-12-29T05:21:15.355Z,12.25
2022-12-29T05:23:43.476Z,11.90
2022-12-29T05:26:11.406Z,11.23
2022-12-29T05:28:39.498Z,11.60
2022-12-29T05:31:07.291Z,12.20
2022-12-29T05:33:35.684Z,11.57
2022-12-29T05:36:08.222Z,12.93
2022-12-29T05:38:37.244Z,11.70
2022-12-29T05:41:04.915Z,13.47
2022-12-29T05:43:33.508Z,13.43
2022-12-29T05:46:01.754Z,13.88
2022-12-29T05:48:32.994Z,14.13
2022-12-29T05:51:05.728Z,14.15
2022-12-29T05:53:33.324Z,14.00
2022-12-29T05:56:01.294Z,13.25
2022-12-29T05:58:29.516Z,12.85
2022-12-29T06:00:57.038Z,12.90
2022-12-29T06:03:25.065Z,13.50
2022-12-29T06:05:53.176Z,12.13
2022-12-29T06:08:20.789Z,13.52
2022-12-29T06:10:49.496Z,14.27
2022-12-29T06:13:17.467Z,14.63
2022-12-29T06:15:45.388Z,13.77
2022-12-29T06:18:19.551Z,12.40
2022-12-29T06:20:48.258Z,12.80
2022-12-29T06:23:17.613Z,13.85
2022-12-29T06:25:45.802Z,13.90
2022-12-29T06:28:13.564Z,14.85
2022-12-29T06:30:45.082Z,14.07
2022-12-29T06:33:13.663Z,16.15
2022-12-29T06:35:43.756Z,14.85
2022-12-29T06:38:11.574Z,13.05
2022-12-29T06:40:39.120Z,13.35
2022-12-29T06:43:07.383Z,12.87
2022-12-29T06:45:35.166Z,11.98
2022-12-29T06:48:02.735Z,12.57
2022-12-29T06:50:30.663Z,12.68
2022-12-29T06:52:58.160Z,13.57
2022-12-29T06:55:26.004Z,14.93
2022-12-29T06:57:59.387Z,14.43
2022-12-29T07:00:26.951Z,14.38
2022-12-29T07:02:56.727Z,13.85
2022-12-29T07:05:24.488Z,14.25
2022-12-29T07:07:51.996Z,16.67
2022-12-29T07:10:20.116Z,16.08
2022-12-29T07:12:47.625Z,15.52
2022-12-29T07:15:15.407Z,15.68
2022-12-29T07:17:43.432Z,16.48
2022-12-29T07:20:11.542Z,15.10
2022-12-29T07:22:39.684Z,15.23
2022-12-29T07:25:07.789Z,14.87
2022-12-29T07:27:35.280Z,13.90
2022-12-29T07:30:02.992Z,16.12
2022-12-29T07:32:33.917Z,16.23
2022-12-29T07:35:01.702Z,16.17
2022-12-29T07:37:29.287Z,18.98
2022-12-29T07:39:57.162Z,17.58
2022-12-29T07:42:24.667Z,17.75
2022-12-29T07:44:52.318Z,17.47
2022-12-29T07:47:20.309Z,16.90
2022-12-29T07:49:48.374Z,18.30
2022-12-29T07:52:15.863Z,16.85
2022-12-29T07:54:43.652Z,17.55
2022-12-29T07:57:11.214Z,18.00
2022-12-29T07:59:38.672Z,18.08
2022-12-29T08:02:06.598Z,17.98
2022-12-29T08:04:34.534Z,16.30
2022-12-29T08:07:02.098Z,16.35
2022-12-29T08:09:29.651Z,16.60
2022-12-29T08:11:57.491Z,17.20
2022-12-29T08:14:24.958Z,16.25
2022-12-29T08:16:52.459Z,17.83
2022-12-29T08:19:20.449Z,17.65
2022-12-29T08:21:47.985Z,17.17
2022-12-29T08:24:15.539Z,16.85
2022-12-29T08:26:43.330Z,17.45
2022-12-29T08:29:10.918Z,17.73
2022-12-29T08:31:38.733Z,18.10
2022-12-29T08:34:06.861Z,17.30
2022-12-29T08:36:34.459Z,19.12
2022-12-29T08:39:02.044Z,19.65
2022-12-29T08:41:30.049Z,18.90
2022-12-29T08:43:57.809Z,19.17
2022-12-29T08:46:25.377Z,18.87
2022-12-29T08:48:54.648Z,17.65
2022-12-29T08:51:24.815Z,17.77
2022-12-29T08:53:53.664Z,17.55
2022-12-29T08:56:22.031Z,15.88
2022-12-29T08:58:49.655Z,15.47
2022-12-29T09:01:18.632Z,15.57
2022-12-29T09:04:17.750Z,17.52
2022-12-29T09:06:40.257Z,19.73
2022-12-29T09:09:08.406Z,19.95
2022-12-29T09:11:36.347Z,19.87
2022-12-29T09:14:04.462Z,22.02
2022-12-29T09:16:32.256Z,23.02
2022-12-29T09:19:00.283Z,23.10
2022-12-29T09:21:27.878Z,22.17
2022-12-29T09:23:55.540Z,16.77
2022-12-29T09:26:23.387Z,17.23
2022-12-29T09:28:51.142Z,16.87
2022-12-29T09:31:18.743Z,16.75
2022-12-29T09:33:46.589Z,16.37
2022-12-29T09:36:14.163Z,16.00
2022-12-29T09:38:41.715Z,16.50
2022-12-29T09:41:42.892Z,16.73
2022-12-29T09:44:21.836Z,16.45
2022-12-29T09:46:52.402Z,15.90
2022-12-29T09:49:33.233Z,15.93
2022-12-29T09:52:07.066Z,14.95
2022-12-29T09:54:43.096Z,19.00
2022-12-29T09:57:38.479Z,22.15
2022-12-29T10:00:14.705Z,19.42
2022-12-29T10:02:50.356Z,15.17
2022-12-29T10:05:51.275Z,13.02
2022-12-29T10:08:37.830Z,13.73
2022-12-29T10:11:23.557Z,14.27
2022-12-29T10:14:23.774Z,18.23
2022-12-29T10:16:55.253Z,16.10
2022-12-29T10:19:43.284Z,13.68
2022-12-29T10:22:24.897Z,13.13
2022-12-29T10:24:56.808Z,12.65
2022-12-29T10:27:25.128Z,11.98
2022-12-29T10:29:59.144Z,10.97
2022-12-29T10:32:41.539Z,11.80
2022-12-29T10:35:20.111Z,11.55
2022-12-29T10:37:53.356Z,11.52
2022-12-29T10:40:29.763Z,14.38
2022-12-29T10:42:59.215Z,18.20
2022-12-29T10:45:31.494Z,18.52
2022-12-29T10:48:20.412Z,20.12
2022-12-29T10:50:49.617Z,23.98
2022-12-29T10:53:27.377Z,21.55
2022-12-29T10:55:56.947Z,20.87
2022-12-29T10:58:26.280Z,21.55
2022-12-29T11:00:55.591Z,22.23
2022-12-29T11:03:42.769Z,13.40
2022-12-29T11:06:20.873Z,10.90
2022-12-29T11:08:57.555Z,11.10
2022-12-29T11:11:37.638Z,12.63
2022-12-29T11:14:20.049Z,10.82
2022-12-29T11:17:06.239Z,12.05
2022-12-29T11:19:40.501Z,12.98
2022-12-29T11:22:26.000Z,14.23
2022-12-29T11:24:55.338Z,17.17
2022-12-29T11:27:25.813Z,16.85
2022-12-29T11:29:55.060Z,16.10
2022-12-29T11:32:29.170Z,14.90
2022-12-29T11:35:02.782Z,12.53
2022-12-29T11:37:39.588Z,11.80
2022-12-29T11:40:22.102Z,12.25
2022-12-29T11:42:53.734Z,12.55
2022-12-29T11:45:24.138Z,12.25
2022-12-29T11:47:57.100Z,12.00
2022-12-29T11:50:32.051Z,11.80
2022-12-29T11:53:03.214Z,12.57
2022-12-29T11:55:32.306Z,12.15
2022-12-29T11:58:03.484Z,12.82
2022-12-29T12:00:35.784Z,12.03
2022-12-29T12:03:21.781Z,12.18
2022-12-29T12:05:58.232Z,11.43
2022-12-29T12:08:49.784Z,12.20
2022-12-29T12:11:37.919Z,12.85
2022-12-29T12:14:22.939Z,11.53
2022-12-29T12:17:03.592Z,11.02
2022-12-29T12:19:50.967Z,13.10
2022-12-29T12:22:35.470Z,13.57
2022-12-29T12:25:24.357Z,23.00
2022-12-29T12:28:01.957Z,18.13
2022-12-29T12:30:37.687Z,14.90
2022-12-29T12:33:16.109Z,15.13
2022-12-29T12:35:53.785Z,13.50
2022-12-29T12:38:39.710Z,13.07
2022-12-29T12:41:25.584Z,13.07
2022-12-29T12:44:15.605Z,13.10
2022-12-29T12:46:52.340Z,12.75
2022-12-29T12:49:57.512Z,12.70
2022-12-29T12:52:42.256Z,12.77
2022-12-29T12:55:35.935Z,12.97
2022-12-29T12:58:22.031Z,12.52
2022-12-29T13:00:58.286Z,14.50
2022-12-29T13:03:48.276Z,12.57
2022-12-29T13:06:37.064Z,14.80
2022-12-29T13:09:10.700Z,14.53
2022-12-29T13:12:02.886Z,14.27
2022-12-29T13:14:42.799Z,15.05
2022-12-29T13:17:20.641Z,15.57
2022-12-29T13:19:55.572Z,15.98
2022-12-29T13:22:46.976Z,15.27
2022-12-29T13:25:38.400Z,24.58
2022-12-29T13:28:36.038Z,18.33
2022-12-29T13:31:33.166Z,17.45
2022-12-29T13:34:28.371Z,17.90
2022-12-29T13:37:02.614Z,17.40
2022-12-29T13:39:36.594Z,18.77
2022-12-29T13:42:06.456Z,42.78
2022-12-29T13:44:44.412Z,57.60
2022-12-29T13:47:36.857Z,44.35
2022-12-29T13:50:07.831Z,106.57
2022-12-29T13:52:53.061Z,79.35
2022-12-29T13:55:48.459Z,50.63
2022-12-29T13:58:38.067Z,16.92
2022-12-29T14:01:20.116Z,11.82
2022-12-29T14:03:50.654Z,20.30
2022-12-29T14:06:33.145Z,33.97
2022-12-29T14:09:06.443Z,107.53
2022-12-29T14:11:36.815Z,91.97
2022-12-29T14:14:43.125Z,45.97
2022-12-29T14:17:14.890Z,15.00
2022-12-29T14:19:45.951Z,9.60
2022-12-29T14:22:13.850Z,9.55
2022-12-29T14:24:46.816Z,10.15
2022-12-29T14:27:14.601Z,7.95
2022-12-29T14:29:42.043Z,8.77
2022-12-29T14:32:27.609Z,8.43
2022-12-29T14:35:22.497Z,7.72
2022-12-29T14:38:15.875Z,6.62
2022-12-29T14:40:43.743Z,8.13
2022-12-29T14:43:21.707Z,8.67
2022-12-29T14:45:56.599Z,10.80
2022-12-29T14:48:40.472Z,13.30
2022-12-29T14:51:28.256Z,21.95
2022-12-29T14:53:55.887Z,20.10
2022-12-29T14:56:32.258Z,21.63
2022-12-29T14:59:04.830Z,15.90
2022-12-29T15:01:50.107Z,13.85
2022-12-29T15:04:24.325Z,15.18
2022-12-29T15:06:53.164Z,13.18
2022-12-29T15:09:51.879Z,14.00
2022-12-29T15:12:47.825Z,13.73
2022-12-29T15:15:22.313Z,8.77
2022-12-29T15:17:50.280Z,8.10
2022-12-29T15:20:17.939Z,8.40
2022-12-29T15:22:46.407Z,10.57
2022-12-29T15:25:18.215Z,11.57
2022-12-29T15:27:54.182Z,11.05
2022-12-29T15:30:22.124Z,9.68
2022-12-29T15:32:51.134Z,9.20
2022-12-29T15:35:32.697Z,10.20
2022-12-29T15:38:01.175Z,19.00
2022-12-29T15:40:31.607Z,24.37
2022-12-29T15:43:29.523Z,29.58
2022-12-29T15:45:57.424Z,29.23
2022-12-29T15:48:26.254Z,25.03
2022-12-29T15:50:53.970Z,17.12
2022-12-29T15:53:29.655Z,17.75
2022-12-29T15:56:06.971Z,21.05
2022-12-29T15:58:48.682Z,21.27
2022-12-29T16:01:28.632Z,13.73
2022-12-29T16:03:58.328Z,13.07
2022-12-29T16:06:35.435Z,12.00
2022-12-29T16:09:29.973Z,12.05
2022-12-29T16:12:01.952Z,11.27
2022-12-29T16:14:44.584Z,13.50
2022-12-29T16:17:22.581Z,14.82
2022-12-29T16:19:55.309Z,13.77
2022-12-29T16:22:37.885Z,16.30
2022-12-29T16:25:20.804Z,14.57
2022-12-29T16:27:48.521Z,11.30
2022-12-29T16:30:32.853Z,11.12
2022-12-29T16:33:04.536Z,13.25
2022-12-29T16:35:44.344Z,13.27
2022-12-29T16:38:16.588Z,14.32
2022-12-29T16:41:04.588Z,16.23
2022-12-29T16:43:42.790Z,14.07
2022-12-29T16:46:28.711Z,15.25
2022-12-29T16:48:57.554Z,12.07
2022-12-29T16:51:37.607Z,10.88
2022-12-29T16:54:05.720Z,12.43
2022-12-29T16:56:37.509Z,12.82
2022-12-29T16:59:23.866Z,10.52
2022-12-29T17:01:51.918Z,10.68
2022-12-29T17:04:19.453Z,11.20
2022-12-29T17:06:47.185Z,10.17
2022-12-29T17:09:19.638Z,10.60
2022-12-29T17:12:01.240Z,11.90
2022-12-29T17:14:43.020Z,11.70
2022-12-29T17:17:34.663Z,10.15
2022-12-29T17:20:20.766Z,9.90
2022-12-29T17:22:49.328Z,9.02
2022-12-29T17:25:38.092Z,9.55
2022-12-29T17:28:08.823Z,9.65
2022-12-29T17:30:36.817Z,11.02
2022-12-29T17:33:13.488Z,11.60
2022-12-29T17:35:41.644Z,10.70
2022-12-29T17:38:30.446Z,9.40
2022-12-29T17:40:58.850Z,9.27
2022-12-29T17:43:33.066Z,10.48
2022-12-29T17:46:07.095Z,9.13
2022-12-29T17:48:35.109Z,9.02
2022-12-29T17:51:02.790Z,8.88
2022-12-29T17:53:30.936Z,8.32
2022-12-29T17:55:58.733Z,11.52
2022-12-29T17:58:29.066Z,12.97
2022-12-29T18:00:59.669Z,9.13
2022-12-29T18:03:36.183Z,7.87
2022-12-29T18:06:08.110Z,8.73
2022-12-29T18:08:38.754Z,9.77
2022-12-29T18:11:26.975Z,11.47
2022-12-29T18:13:54.991Z,9.50
2022-12-29T18:16:23.777Z,8.60
2022-12-29T18:18:51.480Z,8.65
2022-12-29T18:21:22.261Z,7.62
2022-12-29T18:23:50.824Z,8.30
2022-12-29T18:26:28.091Z,7.45
2022-12-29T18:28:57.537Z,6.95
2022-12-29T18:31:30.368Z,7.40
2022-12-29T18:34:00.895Z,6.65
2022-12-29T18:36:29.179Z,7.43
2022-12-29T18:38:56.828Z,9.23
2022-12-29T18:41:29.013Z,9.02
2022-12-29T18:43:57.547Z,9.50
2022-12-29T18:46:25.658Z,10.70
2022-12-29T18:48:53.997Z,9.77
2022-12-29T18:51:24.146Z,9.77
2022-12-29T18:53:54.091Z,8.85
2022-12-29T18:56:23.703Z,7.68
2022-12-29T18:58:53.495Z,8.63
2022-12-29T19:01:27.961Z,8.07
2022-12-29T19:03:55.897Z,7.80
2022-12-29T19:06:23.783Z,7.82
2022-12-29T19:08:51.340Z,8.05
2022-12-29T19:11:18.913Z,9.02
2022-12-29T19:13:46.698Z,9.00
2022-12-29T19:16:20.125Z,8.05
2022-12-29T19:19:00.909Z,7.22
2022-12-29T19:21:37.790Z,6.95
2022-12-29T19:24:06.052Z,6.90
2022-12-29T19:26:36.801Z,6.80
2022-12-29T19:29:08.234Z,6.62
2022-12-29T19:31:37.547Z,7.85
2022-12-29T19:34:05.500Z,6.65
2022-12-29T19:36:33.725Z,7.55
2022-12-29T19:39:01.257Z,6.90
2022-12-29T19:41:29.112Z,7.32
2022-12-29T19:43:56.639Z,7.18
2022-12-29T19:46:25.509Z,7.50
2022-12-29T19:48:59.090Z,7.53
2022-12-29T19:51:27.690Z,7.83
2022-12-29T19:53:56.040Z,7.07
2022-12-29T19:56:23.653Z,6.55
2022-12-29T19:58:51.546Z,7.62
2022-12-29T20:01:24.005Z,6.35
2022-12-29T20:03:52.585Z,8.17
2022-12-29T20:06:20.483Z,8.00
2022-12-29T20:08:48.237Z,7.60
2022-12-29T20:11:18.378Z,6.93
2022-12-29T20:13:46.981Z,6.78
2022-12-29T20:16:17.554Z,7.83
2022-12-29T20:18:46.566Z,7.62
2022-12-29T20:21:16.887Z,7.55
2022-12-29T20:23:45.175Z,8.55
2022-12-29T20:26:25.522Z,7.93
2022-12-29T20:28:57.826Z,8.23
2022-12-29T20:31:31.340Z,8.38
2022-12-29T20:34:02.277Z,8.02
2022-12-29T20:36:33.104Z,8.68
2022-12-29T20:39:06.018Z,9.38
2022-12-29T20:41:34.364Z,7.43
2022-12-29T20:44:04.184Z,7.32
2022-12-29T20:46:36.716Z,6.40
2022-12-29T20:49:11.222Z,6.32
2022-12-29T20:52:05.122Z,5.93
2022-12-29T20:54:26.853Z,5.53
2022-12-29T20:56:55.298Z,6.47
2022-12-29T20:59:27.706Z,6.47
2022-12-29T21:01:57.132Z,7.50
2022-12-29T21:04:25.214Z,6.05
2022-12-29T21:06:52.969Z,5.93
2022-12-29T21:09:20.938Z,4.37
2022-12-29T21:11:48.621Z,4.50
2022-12-29T21:14:16.306Z,4.28
2022-12-29T21:16:44.305Z,4.93
2022-12-29T21:19:12.002Z,4.50
2022-12-29T21:21:39.599Z,3.83
2022-12-29T21:24:07.950Z,3.62
2022-12-29T21:26:35.856Z,4.28
2022-12-29T21:29:04.194Z,4.18
2022-12-29T21:31:34.858Z,4.67
2022-12-29T21:34:04.966Z,3.72
2022-12-29T21:36:33.616Z,3.70
2022-12-29T21:39:03.402Z,4.20
2022-12-29T21:41:31.968Z,4.70
2022-12-29T21:44:18.489Z,4.37
2022-12-29T21:46:47.872Z,5.80
2022-12-29T21:49:16.490Z,5.82
2022-12-29T21:51:57.562Z,5.32
2022-12-29T21:54:46.197Z,6.95
2022-12-29T21:57:35.278Z,5.70
2022-12-29T22:00:26.383Z,5.03
2022-12-29T22:03:22.070Z,5.68
2022-12-29T22:06:10.112Z,5.18
2022-12-29T22:08:57.522Z,6.30
2022-12-29T22:11:43.716Z,8.33
2022-12-29T22:14:11.482Z,6.82
2022-12-29T22:16:39.022Z,6.05
2022-12-29T22:19:08.740Z,5.90
2022-12-29T22:21:36.655Z,5.95
2022-12-29T22:24:04.378Z,6.37
2022-12-29T22:26:32.072Z,6.22
2022-12-29T22:29:00.162Z,6.50
2022-12-29T22:31:30.248Z,5.60
2022-12-29T22:33:59.943Z,5.75
2022-12-29T22:36:28.835Z,5.87
2022-12-29T22:38:56.660Z,5.82
2022-12-29T22:41:24.721Z,5.72
2022-12-29T22:43:52.724Z,4.28
2022-12-29T22:46:20.328Z,5.28
2022-12-29T22:48:47.945Z,4.53
2022-12-29T22:51:15.787Z,4.68
2022-12-29T22:53:43.321Z,5.00
2022-12-29T22:56:13.059Z,4.25
2022-12-29T22:58:46.355Z,4.70
2022-12-29T23:01:16.197Z,4.30
2022-12-29T23:03:44.701Z,4.45
2022-12-29T23:06:14.802Z,4.57
2022-12-29T23:08:43.514Z,3.80
2022-12-29T23:11:13.114Z,4.72
2022-12-29T23:13:41.716Z,3.67
2022-12-29T23:16:09.355Z,4.37
2022-12-29T23:18:37.582Z,4.68
2022-12-29T23:21:05.842Z,5.10
2022-12-29T23:23:52.362Z,5.30
2022-12-29T23:26:21.922Z,4.37
2022-12-29T23:28:51.518Z,5.72
2022-12-29T23:31:24.104Z,5.15
2022-12-29T23:33:52.199Z,5.80
2022-12-29T23:36:19.965Z,5.93
2022-12-29T23:38:47.859Z,6.73
2022-12-29T23:41:15.393Z,6.30
2022-12-29T23:43:42.896Z,7.32
2022-12-29T23:46:17.207Z,7.37
2022-12-29T23:48:44.772Z,6.32
2022-12-29T23:51:12.796Z,6.30
2022-12-29T23:53:42.368Z,6.55
2022-12-29T23:56:13.771Z,6.57
2022-12-29T23:58:41.690Z,5.65
